DNAA/ABV METAR and TAF weather

Enter ICAO airport designator
Station Type Date Time Source
DNAA METAR 2018/01/18 11:00 UTC NOAA

DNAA 181100Z VRB03KT 2000 HZ NSC 31/M02 Q1014 BECMG 3000


Station Type Date Time Source
DNAA Decoded METAR 2018/01/18 11:00 UTC NOAA

Station name not available
Jan 18, 2018 - 06:00 AM EST / 2018.01.18 1100 UTC
Wind: Variable at 3 MPH (3 KT):0
Visibility: 1 mile(s):0
Weather: haze
Temperature: 87 F (31 C)
Dew Point: 28 F (-2 C)
Relative Humidity: 11%
Pressure (altimeter): 29.94 in. Hg (1014 hPa)
ob: DNAA 181100Z VRB03KT 2000 HZ NSC 31/M02 Q1014 BECMG 3000
cycle: 11

Station Type Date Time Source
DNAA TAF 2018/01/22 18:21 UTC NOAA

TAF DNAA 221540Z 2218/2324 36005KT 8000 NSC
BECMG 2221/2223 06010KT PROB30
TEMPO 2304/2310 5000 HZ


Example: see airport list